Vano — SBNM — position and weather

sailwx.info

Track history (hours):
 
Tides and Currents Weather Stations Pressure Air Temp Water Temp Dewpoint Dewpoint Depression Visibility Wind Speed Wind Dir Waves Ship Positions

Vano

Last reported at 2016-May-24 15:33 UTC. Time now 2016-May-24 15:43 UTC.
Position N 59°20' E 018°04'.

Length 38 m; draft 1.8 m.

Type: Passenger vessel. MMSI: 265520400.

Date/timePositionNaut miles runAvg speedWind from/ knotsBaromVisibWave heightAir tempDewpointWater temp
2016-May-24 15:33N 59°20' E 018°04'0 0.0
2016-May-24 14:33N 59°20' E 018°04'0 0.0
2016-May-24 13:28N 59°20' E 018°04'0 0.0
2016-May-24 12:33N 59°20' E 018°04'0 0.0
2016-May-24 11:34N 59°20' E 018°04'0 0.0
2016-May-24 10:33N 59°20' E 018°04'0 0.0
2016-May-24 09:33N 59°20' E 018°04'0 0.0
2016-May-24 08:33N 59°20' E 018°04'0 0.0
2016-May-24 07:33N 59°20' E 018°05'0 0.0
2016-May-24 06:33N 59°20' E 018°04'3 3.4
2016-May-24 05:33N 59°20' E 018°11'5 0.4
2016-May-23 16:28N 59°23' E 018°20'8 9.2
2016-May-23 15:33N 59°19' E 018°05'0 0.3
2016-May-23 14:33N 59°20' E 018°05'8 6.1
2016-May-23 13:15N 59°23' E 018°19'5 0.8
2016-May-23 07:27N 59°20' E 018°12'4 4.2
2016-May-23 06:34N 59°20' E 018°04'3 3.0
2016-May-23 05:33N 59°19' E 018°10'3 0.3
2016-May-22 19:28N 59°21' E 018°14'5 5.8
2016-May-22 18:33N 59°20' E 018°05'0 0.0
2016-May-22 17:33N 59°20' E 018°05'5 5.3
2016-May-22 16:33N 59°22' E 018°14'3 0.4
2016-May-22 09:19N 59°23' E 018°19'810.4
2016-May-22 08:33N 59°19' E 018°05'0 0.3
2016-May-22 07:33N 59°20' E 018°05'0 0.0
2016-May-22 06:33N 59°20' E 018°05'0 0.0
2016-May-22 05:33N 59°20' E 018°05'0 0.0
2016-May-22 04:33N 59°20' E 018°05'0 0.0
2016-May-22 03:33N 59°20' E 018°05'0 0.0
2016-May-22 02:33N 59°20' E 018°05'0 0.0
2016-May-22 01:33N 59°20' E 018°05'0 0.0
2016-May-22 00:33N 59°20' E 018°05'0 0.0
2016-May-21 23:34N 59°20' E 018°05'0 0.0
2016-May-21 22:34N 59°20' E 018°05'0 0.0
2016-May-21 21:34N 59°20' E 018°05'0 0.0
2016-May-21 20:34N 59°20' E 018°05'0 0.0
2016-May-21 19:33N 59°20' E 018°05'0 0.1
2016-May-21 18:33N 59°20' E 018°05'4 0.7
2016-May-21 13:21N 59°20' E 018°12'4 4.6
2016-May-21 12:33N 59°20' E 018°05'0 0.0
2016-May-21 11:33N 59°20' E 018°05'8 0.3
2016-May-20 07:18N 59°23' E 018°19'810.6
2016-May-20 06:33N 59°19' E 018°05'0 0.3
2016-May-20 05:33N 59°20' E 018°05'0 0.0
2016-May-20 04:33N 59°20' E 018°04'0 0.0
2016-May-20 03:33N 59°20' E 018°04'0 0.0
2016-May-20 02:33N 59°20' E 018°04'0 0.0
2016-May-20 01:33N 59°20' E 018°04'0 0.0
2016-May-20 00:33N 59°20' E 018°04'0 0.0
2016-May-19 23:33N 59°20' E 018°04'0 0.0
2016-May-19 22:33N 59°20' E 018°05'0 0.0
2016-May-19 21:33N 59°20' E 018°04'0 0.0
2016-May-19 20:33N 59°20' E 018°04'0 0.0
2016-May-19 19:33N 59°20' E 018°04'0 0.0
2016-May-19 18:33N 59°20' E 018°04'0 0.0
2016-May-19 17:33N 59°20' E 018°04'0 0.0
2016-May-19 16:33N 59°20' E 018°04'0 0.0
2016-May-19 15:33N 59°20' E 018°04'0 0.0
2016-May-19 14:34N 59°20' E 018°04'8 6.0
2016-May-19 13:17N 59°23' E 018°19'4 0.7
2016-May-19 07:25N 59°20' E 018°12'4 4.7
2016-May-19 06:33N 59°20' E 018°04'0 0.0
2016-May-19 05:33N 59°20' E 018°04'0 0.0
2016-May-19 04:33N 59°20' E 018°04'0 0.0
2016-May-19 03:33N 59°20' E 018°04'0 0.0
2016-May-19 02:33N 59°20' E 018°04'0 0.0
2016-May-19 01:33N 59°20' E 018°04'0 0.0
2016-May-19 00:33N 59°20' E 018°04'0 0.0
2016-May-18 23:33N 59°20' E 018°04'0 0.0
2016-May-18 22:33N 59°20' E 018°04'0 0.0
2016-May-18 21:33N 59°20' E 018°04'0 0.0
2016-May-18 20:33N 59°20' E 018°04'0 0.0
2016-May-18 19:33N 59°20' E 018°04'0 0.0
2016-May-18 18:33N 59°20' E 018°04'0 0.0
2016-May-18 17:33N 59°20' E 018°04'0 0.0
2016-May-18 16:33N 59°20' E 018°04'0 0.0
2016-May-18 15:33N 59°20' E 018°04'0 0.0
2016-May-18 14:33N 59°20' E 018°04'0 0.0
2016-May-18 13:33N 59°20' E 018°04'0 0.0
2016-May-18 12:33N 59°20' E 018°04'0 0.0
2016-May-18 11:33N 59°20' E 018°04'0 0.0
2016-May-18 10:33N 59°20' E 018°04'0 0.0
2016-May-18 09:33N 59°20' E 018°04'0 0.0
2016-May-18 08:33N 59°20' E 018°04'0 0.0
2016-May-18 07:33N 59°20' E 018°04'0 0.0
2016-May-18 06:33N 59°20' E 018°04'0 0.0
2016-May-18 05:33N 59°20' E 018°04'0 0.0
2016-May-18 04:33N 59°20' E 018°04'0 0.0
2016-May-18 03:33N 59°20' E 018°04'0 0.0
2016-May-18 02:33N 59°20' E 018°04'0 0.0
2016-May-18 01:32N 59°20' E 018°04'0 0.0
2016-May-18 00:31N 59°20' E 018°04'0 0.0
2016-May-17 23:33N 59°20' E 018°04'0 0.0
2016-May-17 22:33N 59°20' E 018°04'0 0.0
2016-May-17 21:29N 59°20' E 018°04'0 0.0
2016-May-17 20:33N 59°20' E 018°04'0 0.0
2016-May-17 19:33N 59°20' E 018°04'0 0.0
2016-May-17 18:33N 59°20' E 018°04'0 0.0
2016-May-17 17:33N 59°20' E 018°04'0 0.0
2016-May-17 16:33N 59°20' E 018°04'0 0.0
2016-May-17 15:33N 59°20' E 018°04'0 0.0
2016-May-17 14:33N 59°20' E 018°04'0 0.0
2016-May-17 13:33N 59°20' E 018°04'0 0.0
2016-May-17 12:33N 59°20' E 018°04'0 0.0
2016-May-17 11:33N 59°20' E 018°04'0 0.0
2016-May-17 10:33N 59°20' E 018°04'0 0.0
2016-May-17 09:32N 59°20' E 018°04'0 0.0
2016-May-17 08:33N 59°20' E 018°04'0 0.0
2016-May-17 07:33N 59°20' E 018°04'0 0.0
2016-May-17 06:33N 59°20' E 018°04'3 2.6
2016-May-17 05:32N 59°19' E 018°10'6 0.4
2016-May-16 16:24N 59°23' E 018°19'8 9.4
2016-May-16 15:33N 59°19' E 018°05'0 0.3
2016-May-16 14:33N 59°20' E 018°04'3 3.4
2016-May-16 13:33N 59°20' E 018°11'0 0.0
2016-May-16 07:21N 59°20' E 018°11'4 4.4
2016-May-16 06:33N 59°20' E 018°05'3 2.6
2016-May-16 05:31N 59°19' E 018°10'1 0.1
2016-May-15 19:19N 59°20' E 018°11'4 4.6
2016-May-15 18:33N 59°20' E 018°05'0 0.0
2016-May-15 17:33N 59°20' E 018°05'7 6.6
2016-May-15 16:27N 59°23' E 018°17'0 0.0
2016-May-15 09:13N 59°23' E 018°17'710.8
2016-May-15 08:33N 59°19' E 018°05'0 0.3
2016-May-15 07:33N 59°20' E 018°05'0 0.0
2016-May-15 06:33N 59°20' E 018°05'0 0.0
2016-May-15 05:34N 59°20' E 018°05'0 0.0
2016-May-15 04:33N 59°20' E 018°05'0 0.0
2016-May-15 03:33N 59°20' E 018°05'0 0.0
2016-May-15 02:33N 59°20' E 018°05'0 0.0
2016-May-15 01:33N 59°20' E 018°05'0 0.0
2016-May-15 00:33N 59°20' E 018°05'0 0.0
2016-May-14 23:33N 59°20' E 018°05'0 0.0
2016-May-14 22:33N 59°20' E 018°05'0 0.0
2016-May-14 21:33N 59°20' E 018°05'0 0.0
2016-May-14 20:33N 59°20' E 018°05'0 0.0
2016-May-14 19:33N 59°20' E 018°05'0 0.0
2016-May-14 18:33N 59°20' E 018°05'  
Track history (hours):
 
Tides and Currents Weather Stations Pressure Air Temp Water Temp Dewpoint Dewpoint Depression Visibility Wind Speed Wind Dir Waves Ship Positions

Vano

Last reported at 2016-May-24 15:33 UTC. Time now 2016-May-24 15:43 UTC.
Position N 59°20' E 018°04'.

Length 38 m; draft 1.8 m.

Type: Passenger vessel. MMSI: 265520400.

Date/timePositionNaut miles runAvg speedWind from/ knotsBaromVisibWave heightAir tempDewpointWater temp
2016-May-24 15:33N 59°20' E 018°04'0 0.0
2016-May-24 14:33N 59°20' E 018°04'0 0.0
2016-May-24 13:28N 59°20' E 018°04'0 0.0
2016-May-24 12:33N 59°20' E 018°04'0 0.0
2016-May-24 11:34N 59°20' E 018°04'0 0.0
2016-May-24 10:33N 59°20' E 018°04'0 0.0
2016-May-24 09:33N 59°20' E 018°04'0 0.0
2016-May-24 08:33N 59°20' E 018°04'0 0.0
2016-May-24 07:33N 59°20' E 018°05'0 0.0
2016-May-24 06:33N 59°20' E 018°04'3 3.4
2016-May-24 05:33N 59°20' E 018°11'5 0.4
2016-May-23 16:28N 59°23' E 018°20'8 9.2
2016-May-23 15:33N 59°19' E 018°05'0 0.3
2016-May-23 14:33N 59°20' E 018°05'8 6.1
2016-May-23 13:15N 59°23' E 018°19'5 0.8
2016-May-23 07:27N 59°20' E 018°12'4 4.2
2016-May-23 06:34N 59°20' E 018°04'3 3.0
2016-May-23 05:33N 59°19' E 018°10'3 0.3
2016-May-22 19:28N 59°21' E 018°14'5 5.8
2016-May-22 18:33N 59°20' E 018°05'0 0.0
2016-May-22 17:33N 59°20' E 018°05'5 5.3
2016-May-22 16:33N 59°22' E 018°14'3 0.4
2016-May-22 09:19N 59°23' E 018°19'810.4
2016-May-22 08:33N 59°19' E 018°05'0 0.3
2016-May-22 07:33N 59°20' E 018°05'0 0.0
2016-May-22 06:33N 59°20' E 018°05'0 0.0
2016-May-22 05:33N 59°20' E 018°05'0 0.0
2016-May-22 04:33N 59°20' E 018°05'0 0.0
2016-May-22 03:33N 59°20' E 018°05'0 0.0
2016-May-22 02:33N 59°20' E 018°05'0 0.0
2016-May-22 01:33N 59°20' E 018°05'0 0.0
2016-May-22 00:33N 59°20' E 018°05'0 0.0
2016-May-21 23:34N 59°20' E 018°05'0 0.0
2016-May-21 22:34N 59°20' E 018°05'0 0.0
2016-May-21 21:34N 59°20' E 018°05'0 0.0
2016-May-21 20:34N 59°20' E 018°05'0 0.0
2016-May-21 19:33N 59°20' E 018°05'0 0.1
2016-May-21 18:33N 59°20' E 018°05'4 0.7
2016-May-21 13:21N 59°20' E 018°12'4 4.6
2016-May-21 12:33N 59°20' E 018°05'0 0.0
2016-May-21 11:33N 59°20' E 018°05'8 0.3
2016-May-20 07:18N 59°23' E 018°19'810.6
2016-May-20 06:33N 59°19' E 018°05'0 0.3
2016-May-20 05:33N 59°20' E 018°05'0 0.0
2016-May-20 04:33N 59°20' E 018°04'0 0.0
2016-May-20 03:33N 59°20' E 018°04'0 0.0
2016-May-20 02:33N 59°20' E 018°04'0 0.0
2016-May-20 01:33N 59°20' E 018°04'0 0.0
2016-May-20 00:33N 59°20' E 018°04'0 0.0
2016-May-19 23:33N 59°20' E 018°04'0 0.0
2016-May-19 22:33N 59°20' E 018°05'0 0.0
2016-May-19 21:33N 59°20' E 018°04'0 0.0
2016-May-19 20:33N 59°20' E 018°04'0 0.0
2016-May-19 19:33N 59°20' E 018°04'0 0.0
2016-May-19 18:33N 59°20' E 018°04'0 0.0
2016-May-19 17:33N 59°20' E 018°04'0 0.0
2016-May-19 16:33N 59°20' E 018°04'0 0.0
2016-May-19 15:33N 59°20' E 018°04'0 0.0
2016-May-19 14:34N 59°20' E 018°04'8 6.0
2016-May-19 13:17N 59°23' E 018°19'4 0.7
2016-May-19 07:25N 59°20' E 018°12'4 4.7
2016-May-19 06:33N 59°20' E 018°04'0 0.0
2016-May-19 05:33N 59°20' E 018°04'0 0.0
2016-May-19 04:33N 59°20' E 018°04'0 0.0
2016-May-19 03:33N 59°20' E 018°04'0 0.0
2016-May-19 02:33N 59°20' E 018°04'0 0.0
2016-May-19 01:33N 59°20' E 018°04'0 0.0
2016-May-19 00:33N 59°20' E 018°04'0 0.0
2016-May-18 23:33N 59°20' E 018°04'0 0.0
2016-May-18 22:33N 59°20' E 018°04'0 0.0
2016-May-18 21:33N 59°20' E 018°04'0 0.0
2016-May-18 20:33N 59°20' E 018°04'0 0.0
2016-May-18 19:33N 59°20' E 018°04'0 0.0
2016-May-18 18:33N 59°20' E 018°04'0 0.0
2016-May-18 17:33N 59°20' E 018°04'0 0.0
2016-May-18 16:33N 59°20' E 018°04'0 0.0
2016-May-18 15:33N 59°20' E 018°04'0 0.0
2016-May-18 14:33N 59°20' E 018°04'0 0.0
2016-May-18 13:33N 59°20' E 018°04'0 0.0
2016-May-18 12:33N 59°20' E 018°04'0 0.0
2016-May-18 11:33N 59°20' E 018°04'0 0.0
2016-May-18 10:33N 59°20' E 018°04'0 0.0
2016-May-18 09:33N 59°20' E 018°04'0 0.0
2016-May-18 08:33N 59°20' E 018°04'0 0.0
2016-May-18 07:33N 59°20' E 018°04'0 0.0
2016-May-18 06:33N 59°20' E 018°04'0 0.0
2016-May-18 05:33N 59°20' E 018°04'0 0.0
2016-May-18 04:33N 59°20' E 018°04'0 0.0
2016-May-18 03:33N 59°20' E 018°04'0 0.0
2016-May-18 02:33N 59°20' E 018°04'0 0.0
2016-May-18 01:32N 59°20' E 018°04'0 0.0
2016-May-18 00:31N 59°20' E 018°04'0 0.0
2016-May-17 23:33N 59°20' E 018°04'0 0.0
2016-May-17 22:33N 59°20' E 018°04'0 0.0
2016-May-17 21:29N 59°20' E 018°04'0 0.0
2016-May-17 20:33N 59°20' E 018°04'0 0.0
2016-May-17 19:33N 59°20' E 018°04'0 0.0
2016-May-17 18:33N 59°20' E 018°04'0 0.0
2016-May-17 17:33N 59°20' E 018°04'0 0.0
2016-May-17 16:33N 59°20' E 018°04'0 0.0
2016-May-17 15:33N 59°20' E 018°04'0 0.0
2016-May-17 14:33N 59°20' E 018°04'0 0.0
2016-May-17 13:33N 59°20' E 018°04'0 0.0
2016-May-17 12:33N 59°20' E 018°04'0 0.0
2016-May-17 11:33N 59°20' E 018°04'0 0.0
2016-May-17 10:33N 59°20' E 018°04'0 0.0
2016-May-17 09:32N 59°20' E 018°04'0 0.0
2016-May-17 08:33N 59°20' E 018°04'0 0.0
2016-May-17 07:33N 59°20' E 018°04'0 0.0
2016-May-17 06:33N 59°20' E 018°04'3 2.6
2016-May-17 05:32N 59°19' E 018°10'6 0.4
2016-May-16 16:24N 59°23' E 018°19'8 9.4
2016-May-16 15:33N 59°19' E 018°05'0 0.3
2016-May-16 14:33N 59°20' E 018°04'3 3.4
2016-May-16 13:33N 59°20' E 018°11'0 0.0
2016-May-16 07:21N 59°20' E 018°11'4 4.4
2016-May-16 06:33N 59°20' E 018°05'3 2.6
2016-May-16 05:31N 59°19' E 018°10'1 0.1
2016-May-15 19:19N 59°20' E 018°11'4 4.6
2016-May-15 18:33N 59°20' E 018°05'0 0.0
2016-May-15 17:33N 59°20' E 018°05'7 6.6
2016-May-15 16:27N 59°23' E 018°17'0 0.0
2016-May-15 09:13N 59°23' E 018°17'710.8
2016-May-15 08:33N 59°19' E 018°05'0 0.3
2016-May-15 07:33N 59°20' E 018°05'0 0.0
2016-May-15 06:33N 59°20' E 018°05'0 0.0
2016-May-15 05:34N 59°20' E 018°05'0 0.0
2016-May-15 04:33N 59°20' E 018°05'0 0.0
2016-May-15 03:33N 59°20' E 018°05'0 0.0
2016-May-15 02:33N 59°20' E 018°05'0 0.0
2016-May-15 01:33N 59°20' E 018°05'0 0.0
2016-May-15 00:33N 59°20' E 018°05'0 0.0
2016-May-14 23:33N 59°20' E 018°05'0 0.0
2016-May-14 22:33N 59°20' E 018°05'0 0.0
2016-May-14 21:33N 59°20' E 018°05'0 0.0
2016-May-14 20:33N 59°20' E 018°05'0 0.0
2016-May-14 19:33N 59°20' E 018°05'0 0.0
2016-May-14 18:33N 59°20' E 018°05'  

Dump ship's entire track history